Latest Weather Observations for Territory Grape Farm

IDD60801

Issued at 9:05 am CST Saturday 1 November 2014 (issued every 30 minutes, with the page automatically refreshed every 10 minutes)

About weather observations | Map of weather stations | Latest weather observations for NT | Other Formats
Station Details ID: 015643 Name: TERRITORY GRAPE FARM Lat: -22.45 Lon: 133.64 Height: 565.6 m
Data from the previous 72 hours. | See also: Recent months at Territory Grape Farm
Date/Time
CST
Temp
°C
App
Temp
°C
Dew
Point
Rel
Hum
%
Delta-T
°C
Wind Press
QNH
hPa
Press
MSL
hPa
Rain
since 9 am
mm
Dir
 
Spd
km/h
Gust
km/h
Spd
kts
Gust
kts
01/09:00am 27.9 25.7 9.2 31 10.6 S 11 17 6 9 1016.6 1013.3 0.0
01/08:30am 27.8 24.4 9.1 31 10.6 S 17 24 9 13 1016.3 1013.0 0.0
01/08:00am 27.6 25.0 9.4 32 10.3 SSW 13 19 7 10 1016.0 1012.8 0.0
01/07:30am 27.2 24.2 9.1 32 10.2 SW 15 20 8 11 1015.6 1012.4 0.0
01/07:00am 27.0 25.1 8.9 32 10.2 SW 9 11 5 6 1015.5 1012.3 0.0
01/06:30am 26.6 25.5 8.6 32 10.0 W 4 6 2 3 1015.4 1012.2 0.0
01/06:00am 26.9 25.4 8.4 31 10.3 SSW 6 11 3 6 1014.9 1011.6 0.0
01/05:30am 27.2 24.0 8.6 31 10.4 SSE 15 24 8 13 1013.8 1010.6 0.0
01/05:00am 27.0 25.4 8.9 32 10.2 S 7 11 4 6 1013.4 1010.1 0.0
01/04:30am 27.4 25.8 8.8 31 10.4 S 7 13 4 7 1013.0 1009.7 0.0
01/04:00am 28.2 25.5 7.4 27 11.4 S 11 20 6 11 1012.3 1009.1 0.0
01/03:30am 28.6 25.6 6.1 24 12.2 SW 11 13 6 7 1011.7 1008.4 0.0
01/03:00am 27.7 25.9 5.3 24 11.9 SW 4 9 2 5 1011.3 1008.0 0.0
01/02:30am 28.0 26.1 5.0 23 12.2 NW 4 9 2 5 1011.3 1008.0 0.0
01/02:00am 28.8 26.9 5.0 22 12.6 NE 4 7 2 4 1010.8 1007.5 0.0
01/01:30am 29.7 27.5 5.1 21 13.2 SSW 6 13 3 7 1011.0 1007.7 0.0
01/01:00am 30.4 25.3 4.2 19 13.8 SW 20 28 11 15 1011.8 1008.5 0.0
01/12:30am 30.3 25.1 5.6 21 13.4 W 22 30 12 16 1012.4 1009.2 0.0
01/12:00am 29.2 27.1 4.0 20 13.2 ENE 4 17 2 9 1011.3 1008.0 0.0
 
Date/Time
CST
Temp
°C
App
Temp
°C
Dew
Point
Rel
Hum
%
Delta-T
°C
Wind Press
QNH
hPa
Press
MSL
hPa
Rain
since 9 am
mm
Dir
 
Spd
km/h
Gust
km/h
Spd
kts
Gust
kts
31/11:30pm 29.6 26.6 4.3 20 13.3 E 9 13 5 7 1010.7 1007.4 0.0
31/11:00pm 31.6 27.5 4.4 18 14.5 NNE 15 20 8 11 1010.9 1007.6 0.0
31/10:30pm 29.6 28.4 6.3 23 12.7 W 2 7 1 4 1011.2 1007.9 0.0
31/10:00pm 29.8 26.5 6.5 23 12.7 ESE 13 17 7 9 1010.9 1007.6 0.0
31/09:30pm 29.8 27.7 6.5 23 12.8 SE 7 9 4 5 1011.3 1008.0 0.0
31/09:00pm 30.6 28.5 6.5 22 13.2 SSE 7 11 4 6 1011.2 1007.9 0.0
31/08:30pm 31.1 27.4 6.2 21 13.7 SSE 15 24 8 13 1010.7 1007.4 0.0
31/08:00pm 31.3 26.7 6.4 21 13.7 S 20 32 11 17 1010.2 1006.9 0.0
31/07:30pm 31.5 25.8 6.5 21 13.8 S 26 37 14 20 1010.2 1006.9 0.0
31/07:00pm 33.4 28.1 -3.7 9 17.5 S 15 26 8 14 1009.8 1006.5 0.0
31/06:30pm 34.0 28.4 -3.3 9 17.8 S 17 26 9 14 1009.3 1006.0 0.0
31/06:00pm 35.3 29.0 -3.9 8 18.7 SSE 20 28 11 15 1008.9 1005.6 0.0
31/05:30pm 36.3 31.4 -3.2 8 19.2 S 13 20 7 11 1008.5 1005.2 0.0
31/05:00pm 35.9 31.4 -3.5 8 19.0 S 11 17 6 9 1008.4 1005.1 0.0
31/04:30pm 35.9 31.7 -3.5 8 19.0 S 9 17 5 9 1008.4 1005.1 0.0
31/04:00pm 37.3 32.9 -2.4 8 19.6 S 11 20 6 11 1008.8 1005.5 0.0
31/03:30pm 37.0 32.4 -4.4 7 19.9 S 11 19 6 10 1009.1 1005.8 0.0
31/03:00pm 36.9 32.5 -2.7 8 19.5 SSW 11 19 6 10 1009.4 1006.1 0.0
31/02:30pm 36.6 32.7 -4.7 7 19.7 E 7 13 4 7 1009.8 1006.5 0.0
31/02:00pm 36.6 32.9 -4.7 7 19.6 SE 6 11 3 6 1010.4 1007.2 0.0
31/01:30pm 35.9 32.3 -3.5 8 19.0 ENE 6 9 3 5 1011.1 1007.8 0.0
31/01:00pm 36.8 32.1 -4.6 7 19.7 NE 11 20 6 11 1011.6 1008.3 0.0
31/12:30pm 35.1 30.7 -5.8 7 18.9 E 9 20 5 11 1012.2 1009.0 0.0
31/12:00pm 35.8 30.3 -5.3 7 19.2 NE 15 24 8 13 1012.9 1009.6 0.0
31/11:30am 35.1 30.3 -5.8 7 18.9 NNE 11 30 6 16 1013.3 1010.0 0.0
31/11:00am 35.0 30.2 -5.9 7 18.8 ENE 11 22 6 12 1013.7 1010.5 0.0
31/10:30am 34.2 28.8 -4.7 8 18.2 ESE 15 33 8 18 1014.0 1010.8 0.0
31/10:00am 33.8 28.3 -5.0 8 18.0 ENE 15 26 8 14 1014.5 1011.2 0.0
31/09:30am 33.2 27.5 -3.9 9 17.4 ESE 17 24 9 13 1014.7 1011.4 0.0
31/09:00am 32.2 26.9 -3.2 10 16.7 SE 15 22 8 12 1014.9 1011.6 0.0
31/08:30am 29.6 25.0 -3.9 11 15.3 SSE 11 19 6 10 1014.9 1011.6 0.0
31/08:00am 28.2 24.6 -1.8 14 14.1 SSE 7 11 4 6 1014.5 1011.2 0.0
31/07:30am 26.2 22.8 -2.4 15 13.1 S 6 9 3 5 1014.2 1011.0 0.0
31/07:00am 25.8 21.4 -2.8 15 12.9 SSE 11 15 6 8 1013.7 1010.5 0.0
31/06:30am 23.3 20.0 -1.6 19 11.3 S 6 7 3 4 1013.0 1009.7 0.0
31/06:00am 22.9 19.4 -1.2 20 11.0 S 7 11 4 6 1012.1 1008.9 0.0
31/05:30am 22.0 18.1 -1.3 21 10.5 SSE 9 13 5 7 1011.7 1008.4 0.0
31/05:00am 20.6 17.1 -1.2 23 9.7 SE 7 9 4 5 1011.4 1008.1 0.0
31/04:30am 22.1 18.1 -1.9 20 10.7 S 9 11 5 6 1011.4 1008.1 0.0
31/04:00am 21.2 17.4 -0.7 23 9.9 SE 9 11 5 6 1011.3 1008.0 0.0
31/03:30am 22.0 18.0 -2.0 20 10.7 SSE 9 11 5 6 1011.4 1008.1 0.0
31/03:00am 23.4 19.5 -1.5 19 11.3 SSE 9 11 5 6 1011.5 1008.2 0.0
31/02:30am 22.4 18.9 -1.6 20 10.8 SE 7 9 4 5 1011.5 1008.2 0.0
31/02:00am 24.0 20.1 -1.8 18 11.7 SE 9 11 5 6 1011.7 1008.4 0.0
31/01:30am 26.8 22.1 -2.0 15 13.3 S 13 17 7 9 1012.0 1008.8 0.0
31/01:00am 26.6 23.1 -1.3 16 13.1 SSE 7 9 4 5 1012.2 1009.0 0.0
31/12:30am 27.4 23.1 -1.5 15 13.6 ESE 11 13 6 7 1012.3 1009.1 0.0
31/12:00am 30.4 25.3 -2.2 12 15.5 E 15 20 8 11 1012.6 1009.3 0.0
 
Date/Time
CST
Temp
°C
App
Temp
°C
Dew
Point
Rel
Hum
%
Delta-T
°C
Wind Press
QNH
hPa
Press
MSL
hPa
Rain
since 9 am
mm
Dir
 
Spd
km/h
Gust
km/h
Spd
kts
Gust
kts
30/11:30pm 31.8 25.7 -2.3 11 16.3 E 20 30 11 16 1012.8 1009.5 0.0
30/11:00pm 31.7 27.1 -1.2 12 16.0 SE 13 22 7 12 1013.0 1009.7 0.0
30/10:30pm 32.0 26.8 0.2 13 15.9 SSE 17 28 9 15 1012.7 1009.4 0.0
30/10:00pm 31.8 24.9 0.0 13 15.8 S 26 35 14 19 1012.7 1009.4 0.0
30/09:30pm 32.8 25.3 -1.5 11 16.7 S 28 46 15 25 1012.3 1009.1 0.0
30/09:22pm 33.0 25.5 -1.4 11 16.8 S 28 46 15 25 1011.6 1008.3 0.0
30/09:00pm 32.6 29.4 0.6 13 16.1 E 7 7 4 4 1011.3 1008.0 0.0
30/08:30pm 33.3 30.2 0.1 12 16.7 ENE 6 7 3 4 1011.2 1007.9 0.0
30/08:00pm 33.8 31.7 1.6 13 16.6 SE 2 4 1 2 1010.9 1007.6 0.0
30/07:30pm 34.1 32.2 2.8 14 16.5 SE 2 2 1 1 1010.7 1007.4 0.0
30/07:00pm 35.1 32.8 0.2 11 17.7 SE 2 2 1 1 1010.4 1007.2 0.0
30/06:30pm 35.8 33.4 2.0 12 17.8 SE 4 6 2 3 1010.1 1006.8 0.0
30/06:00pm 37.1 34.2 -1.0 9 19.3 E 4 4 2 2 1010.1 1006.8 0.0
30/05:30pm 37.4 34.0 -0.8 9 19.4 SE 7 9 4 5 1009.9 1006.6 0.0
30/05:00pm 38.1 34.5 -1.9 8 20.0 ENE 7 11 4 6 1009.8 1006.5 0.0
30/04:30pm 38.7 35.2 -1.4 8 20.4 NE 7 13 4 7 1009.9 1006.6 0.0
30/04:00pm 39.3 34.7 -1.0 8 20.6 N 13 19 7 10 1010.0 1006.7 0.0
30/03:30pm 38.4 35.1 -1.6 8 20.2 S 6 11 3 6 1010.2 1006.9 0.0
30/03:00pm 38.6 33.9 -1.5 8 20.3 WNW 13 30 7 16 1010.5 1007.3 0.0
30/02:30pm 38.6 33.9 -1.5 8 20.3 N 13 26 7 14 1010.8 1007.5 0.0
30/02:00pm 37.9 34.3 -2.0 8 19.9 S 7 19 4 10 1011.2 1007.9 0.0
30/01:30pm 38.0 34.3 -0.3 9 19.7 NNE 9 19 5 10 1011.8 1008.5 0.0
30/01:00pm 38.1 32.1 -1.9 8 20.0 N 20 26 11 14 1012.3 1009.1 0.0
30/12:30pm 36.6 32.5 -3.0 8 19.3 NE 9 22 5 12 1013.0 1009.7 0.0
30/12:00pm 36.8 33.1 -2.8 8 19.4 NE 7 22 4 12 1013.5 1010.3 0.0
30/11:30am 36.5 30.3 -3.0 8 19.3 NE 20 26 11 14 1014.1 1010.9 0.0
30/11:00am 35.7 29.6 -3.6 8 18.9 NNE 19 32 10 17 1014.7 1011.4 0.0
30/10:30am 35.2 29.1 -4.0 8 18.6 NE 19 28 10 15 1015.1 1011.9 0.0
30/10:00am 34.3 27.2 -4.6 8 18.2 ENE 24 32 13 17 1015.2 1012.0 0.0
30/09:30am 33.9 27.5 -4.9 8 18.0 ENE 20 30 11 16 1015.5 1012.3 0.0
30/09:00am 32.6 26.3 -5.9 8 17.4 ENE 19 28 10 15 1015.6 1012.4 0.0
30/08:30am 30.4 23.7 -7.5 8 16.4 E 20 28 11 15 1015.6 1012.4 0.0
30/08:00am 28.5 22.0 -7.4 9 15.3 E 19 24 10 13 1015.6 1012.4 0.0
30/07:30am 26.2 20.7 -5.4 12 13.7 E 15 19 8 10 1015.4 1012.2 0.0
30/07:00am 22.5 19.5 -2.2 19 11.0 SE 4 6 2 3 1015.4 1012.2 0.0
30/06:30am 20.6 16.9 -2.5 21 10.1 ESE 7 9 4 5 1015.1 1011.9 0.0
30/06:00am 19.1 15.6 -2.5 23 9.3 E 6 7 3 4 1014.8 1011.5 0.0
30/05:30am 20.1 16.0 -2.9 21 9.9 ESE 9 9 5 5 1014.6 1011.3 0.0
30/05:00am 20.2 16.5 -2.8 21 9.9 E 7 9 4 5 1014.4 1011.1 0.0
30/04:30am 20.2 16.4 -3.4 20 10.1 E 7 9 4 5 1013.9 1010.7 0.0
30/04:00am 20.4 16.8 -2.0 22 9.8 ESE 7 9 4 5 1013.9 1010.7 0.0
30/03:30am 20.7 17.1 -2.4 21 10.1 ESE 7 9 4 5 1014.0 1010.8 0.0
30/03:00am 20.9 16.9 -2.2 21 10.2 ESE 9 9 5 5 1014.0 1010.8 0.0
30/02:30am 21.6 17.7 -1.6 21 10.4 ESE 9 11 5 6 1014.0 1010.8 0.0
30/02:00am 22.4 18.9 -1.6 20 10.8 ESE 7 9 4 5 1014.1 1010.9 0.0
30/01:30am 24.2 20.1 -3.2 16 12.1 E 9 11 5 6 1014.4 1011.1 0.0
30/01:00am 23.4 19.5 -1.5 19 11.3 ESE 9 11 5 6 1014.5 1011.2 0.0
30/12:30am 25.2 21.2 -2.4 16 12.5 E 9 13 5 7 1014.7 1011.4 0.0
30/12:00am 27.0 22.7 -1.8 15 13.4 E 11 17 6 9 1014.8 1011.5 0.0
 
Date/Time
CST
Temp
°C
App
Temp
°C
Dew
Point
Rel
Hum
%
Delta-T
°C
Wind Press
QNH
hPa
Press
MSL
hPa
Rain
since 9 am
mm
Dir
 
Spd
km/h
Gust
km/h
Spd
kts
Gust
kts
29/11:30pm 27.3 22.6 -1.6 15 13.5 ESE 13 17 7 9 1015.0 1011.7 0.0
29/11:00pm 27.0 22.9 -0.1 17 13.0 ESE 11 13 6 7 1015.2 1012.0 0.0
29/10:30pm 28.8 24.0 0.5 16 13.9 E 15 19 8 10 1015.2 1012.0 0.0
29/10:00pm 28.0 23.8 1.5 18 13.2 ESE 13 15 7 8 1015.2 1012.0 0.0
29/09:30pm 27.9 24.4 1.4 18 13.1 E 9 11 5 6 1015.0 1011.7 0.0
29/09:00pm 28.2 25.4 3.1 20 12.8 E 7 9 4 5 1014.8 1011.5 0.0
29/08:30pm 28.7 26.0 2.8 19 13.2 ENE 6 7 3 4 1014.5 1011.2 0.0
29/08:00pm 30.3 27.7 0.8 15 14.7 NNE 4 4 2 2 1014.1 1010.9 0.0
29/07:30pm 31.4 28.4 0.7 14 15.4 E 6 7 3 4 1013.9 1010.7 0.0
29/07:00pm 33.7 30.1 0.4 12 16.8 E 9 11 5 6 1013.6 1010.4 0.0
29/06:30pm 35.1 31.8 0.2 11 17.8 E 7 11 4 6 1013.4 1010.1 0.0
29/06:00pm 36.0 32.4 0.9 11 18.2 ENE 9 13 5 7 1013.2 1009.9 0.0
29/05:30pm 36.3 33.0 -0.2 10 18.6 E 7 11 4 6 1013.1 1009.8 0.0
29/05:00pm 36.8 34.1 0.2 10 18.8 SE 4 7 2 4 1013.1 1009.8 0.0
29/04:30pm 36.9 33.8 0.3 10 18.8 NNE 6 11 3 6 1013.2 1009.9 0.0
29/04:00pm 37.0 33.7 0.4 10 18.9 S 7 15 4 8 1013.3 1010.0 0.0
29/03:30pm 36.9 33.6 0.3 10 18.8 ENE 7 13 4 7 1013.5 1010.3 0.0
29/03:00pm 36.6 32.9 0.1 10 18.7 NNE 9 15 5 8 1013.9 1010.7 0.0
29/02:30pm 36.7 33.6 0.1 10 18.8 SSE 6 11 3 6 1014.2 1011.0 0.0
29/02:00pm 35.5 32.6 -0.8 10 18.2 E 4 11 2 6 1014.8 1011.5 0.0
29/01:30pm 35.5 31.7 -0.8 10 18.2 ENE 9 19 5 10 1015.2 1012.0 0.0
29/01:00pm 34.8 30.9 -1.3 10 17.9 E 9 22 5 12 1015.7 1012.5 0.0
29/12:30pm 35.0 29.8 -2.6 9 18.3 ESE 15 20 8 11 1016.4 1013.1 0.0
29/12:00pm 34.0 29.9 -3.3 9 17.8 E 9 19 5 10 1016.9 1013.7 0.0
29/11:30am 34.0 28.7 -3.3 9 17.8 E 15 24 8 13 1017.1 1013.9 0.0
29/11:00am 32.6 27.2 -4.3 9 17.1 E 15 24 8 13 1017.5 1014.3 0.0
29/10:30am 32.3 26.3 -3.2 10 16.7 E 19 26 10 14 1017.8 1014.6 0.0
29/10:00am 30.2 24.4 -4.8 10 15.8 E 17 26 9 14 1018.4 1015.2 0.0
29/09:30am 30.2 24.0 -4.8 10 15.8 E 19 26 10 14 1018.5 1015.3 0.0

Other Formats:

Comma delimited format used in spreadsheet applications
http://www.bom.gov.au/fwo/IDD60801/IDD60801.94328.axf

JavaScript Object Notation format (JSON) in row-major order
http://www.bom.gov.au/fwo/IDD60801/IDD60801.94328.json